sensor_id;sensor_type;location;lat;lon;timestamp;P1;durP1;ratioP1;P2;durP2;ratioP2
10430;SDS011;5262;59.958;17.726;2023-04-24T00:02:14;0.40;;;0.23;;
10430;SDS011;5262;59.958;17.726;2023-04-24T00:04:41;0.50;;;0.20;;
10430;SDS011;5262;59.958;17.726;2023-04-24T00:07:10;0.40;;;0.20;;
10430;SDS011;5262;59.958;17.726;2023-04-24T00:09:36;0.50;;;0.30;;
10430;SDS011;5262;59.958;17.726;2023-04-24T00:12:02;0.50;;;0.27;;
10430;SDS011;5262;59.958;17.726;2023-04-24T00:14:30;0.40;;;0.20;;
10430;SDS011;5262;59.958;17.726;2023-04-24T00:16:56;0.37;;;0.30;;
10430;SDS011;5262;59.958;17.726;2023-04-24T00:19:21;0.60;;;0.40;;
10430;SDS011;5262;59.958;17.726;2023-04-24T00:21:47;0.33;;;0.30;;
10430;SDS011;5262;59.958;17.726;2023-04-24T00:24:15;0.40;;;0.40;;
10430;SDS011;5262;59.958;17.726;2023-04-24T00:26:42;0.47;;;0.40;;
10430;SDS011;5262;59.958;17.726;2023-04-24T00:29:07;0.57;;;0.40;;
10430;SDS011;5262;59.958;17.726;2023-04-24T00:31:33;0.40;;;0.33;;
10430;SDS011;5262;59.958;17.726;2023-04-24T00:34:01;0.43;;;0.30;;
10430;SDS011;5262;59.958;17.726;2023-04-24T00:36:30;1.13;;;0.50;;
10430;SDS011;5262;59.958;17.726;2023-04-24T00:38:57;0.53;;;0.53;;
10430;SDS011;5262;59.958;17.726;2023-04-24T00:41:24;0.70;;;0.57;;
10430;SDS011;5262;59.958;17.726;2023-04-24T00:43:50;2.33;;;0.73;;
10430;SDS011;5262;59.958;17.726;2023-04-24T00:46:17;0.70;;;0.50;;
10430;SDS011;5262;59.958;17.726;2023-04-24T00:48:42;1.07;;;0.80;;
10430;SDS011;5262;59.958;17.726;2023-04-24T00:51:08;1.10;;;1.00;;
10430;SDS011;5262;59.958;17.726;2023-04-24T00:53:34;1.80;;;1.40;;
10430;SDS011;5262;59.958;17.726;2023-04-24T00:55:59;1.50;;;1.40;;
10430;SDS011;5262;59.958;17.726;2023-04-24T00:58:26;1.73;;;1.53;;
10430;SDS011;5262;59.958;17.726;2023-04-24T01:00:52;2.00;;;1.80;;
10430;SDS011;5262;59.958;17.726;2023-04-24T01:03:22;3.60;;;2.43;;
10430;SDS011;5262;59.958;17.726;2023-04-24T01:05:51;3.17;;;2.57;;
10430;SDS011;5262;59.958;17.726;2023-04-24T01:08:19;3.03;;;2.33;;
10430;SDS011;5262;59.958;17.726;2023-04-24T01:10:48;3.93;;;3.27;;
10430;SDS011;5262;59.958;17.726;2023-04-24T01:13:16;3.10;;;2.80;;
10430;SDS011;5262;59.958;17.726;2023-04-24T01:15:44;4.57;;;2.83;;
10430;SDS011;5262;59.958;17.726;2023-04-24T01:18:10;4.23;;;3.37;;
10430;SDS011;5262;59.958;17.726;2023-04-24T01:20:36;3.80;;;3.20;;
10430;SDS011;5262;59.958;17.726;2023-04-24T01:23:05;4.13;;;2.83;;
10430;SDS011;5262;59.958;17.726;2023-04-24T01:25:31;4.23;;;3.27;;
10430;SDS011;5262;59.958;17.726;2023-04-24T01:27:57;3.37;;;2.90;;
10430;SDS011;5262;59.958;17.726;2023-04-24T01:30:23;4.00;;;2.87;;
10430;SDS011;5262;59.958;17.726;2023-04-24T01:32:49;2.83;;;2.60;;
10430;SDS011;5262;59.958;17.726;2023-04-24T01:35:16;2.47;;;2.27;;
10430;SDS011;5262;59.958;17.726;2023-04-24T01:37:42;2.60;;;1.97;;
10430;SDS011;5262;59.958;17.726;2023-04-24T01:40:08;2.17;;;1.83;;
10430;SDS011;5262;59.958;17.726;2023-04-24T01:42:34;2.10;;;1.90;;
10430;SDS011;5262;59.958;17.726;2023-04-24T01:45:00;2.63;;;1.90;;
10430;SDS011;5262;59.958;17.726;2023-04-24T01:47:28;2.73;;;1.80;;
10430;SDS011;5262;59.958;17.726;2023-04-24T01:49:55;3.90;;;2.00;;
10430;SDS011;5262;59.958;17.726;2023-04-24T01:52:20;3.47;;;2.03;;
10430;SDS011;5262;59.958;17.726;2023-04-24T01:54:46;2.17;;;1.73;;
10430;SDS011;5262;59.958;17.726;2023-04-24T01:57:13;1.67;;;1.40;;
10430;SDS011;5262;59.958;17.726;2023-04-24T01:59:39;2.27;;;2.00;;
10430;SDS011;5262;59.958;17.726;2023-04-24T02:02:05;1.83;;;1.50;;
10430;SDS011;5262;59.958;17.726;2023-04-24T02:04:31;1.60;;;1.50;;
10430;SDS011;5262;59.958;17.726;2023-04-24T02:06:57;1.87;;;1.67;;
10430;SDS011;5262;59.958;17.726;2023-04-24T02:09:22;1.57;;;1.47;;
10430;SDS011;5262;59.958;17.726;2023-04-24T02:11:48;1.97;;;1.77;;
10430;SDS011;5262;59.958;17.726;2023-04-24T02:14:14;1.90;;;1.73;;
10430;SDS011;5262;59.958;17.726;2023-04-24T02:16:43;2.13;;;1.93;;
10430;SDS011;5262;59.958;17.726;2023-04-24T02:19:09;2.30;;;2.10;;
10430;SDS011;5262;59.958;17.726;2023-04-24T02:21:35;3.23;;;1.93;;
10430;SDS011;5262;59.958;17.726;2023-04-24T02:24:01;2.27;;;1.80;;
10430;SDS011;5262;59.958;17.726;2023-04-24T02:26:27;3.20;;;2.53;;
10430;SDS011;5262;59.958;17.726;2023-04-24T02:28:52;3.00;;;2.30;;
10430;SDS011;5262;59.958;17.726;2023-04-24T02:31:18;2.70;;;2.23;;
10430;SDS011;5262;59.958;17.726;2023-04-24T02:33:44;3.13;;;2.47;;
10430;SDS011;5262;59.958;17.726;2023-04-24T02:36:09;2.57;;;2.37;;
10430;SDS011;5262;59.958;17.726;2023-04-24T02:38:35;3.97;;;2.63;;
10430;SDS011;5262;59.958;17.726;2023-04-24T02:41:01;2.63;;;2.40;;
10430;SDS011;5262;59.958;17.726;2023-04-24T02:43:28;3.87;;;3.13;;
10430;SDS011;5262;59.958;17.726;2023-04-24T02:45:53;2.27;;;2.07;;
10430;SDS011;5262;59.958;17.726;2023-04-24T02:48:19;3.63;;;3.13;;
10430;SDS011;5262;59.958;17.726;2023-04-24T02:50:46;3.57;;;2.73;;
10430;SDS011;5262;59.958;17.726;2023-04-24T02:53:11;3.83;;;2.53;;
10430;SDS011;5262;59.958;17.726;2023-04-24T02:55:37;3.37;;;2.70;;
10430;SDS011;5262;59.958;17.726;2023-04-24T02:58:02;2.93;;;2.67;;
10430;SDS011;5262;59.958;17.726;2023-04-24T03:00:28;3.97;;;3.00;;
10430;SDS011;5262;59.958;17.726;2023-04-24T03:02:54;5.77;;;3.30;;
10430;SDS011;5262;59.958;17.726;2023-04-24T03:05:19;4.97;;;3.20;;
10430;SDS011;5262;59.958;17.726;2023-04-24T03:07:45;3.50;;;3.03;;
10430;SDS011;5262;59.958;17.726;2023-04-24T03:10:11;4.33;;;2.90;;
10430;SDS011;5262;59.958;17.726;2023-04-24T03:12:36;3.67;;;3.17;;
10430;SDS011;5262;59.958;17.726;2023-04-24T03:15:02;4.37;;;3.50;;
10430;SDS011;5262;59.958;17.726;2023-04-24T03:17:28;3.57;;;3.27;;
10430;SDS011;5262;59.958;17.726;2023-04-24T03:19:54;4.23;;;3.73;;
10430;SDS011;5262;59.958;17.726;2023-04-24T03:22:19;4.90;;;4.33;;
10430;SDS011;5262;59.958;17.726;2023-04-24T03:24:45;4.90;;;4.40;;
10430;SDS011;5262;59.958;17.726;2023-04-24T03:27:11;4.67;;;3.90;;
10430;SDS011;5262;59.958;17.726;2023-04-24T03:29:36;4.30;;;3.73;;
10430;SDS011;5262;59.958;17.726;2023-04-24T03:32:02;4.87;;;4.00;;
10430;SDS011;5262;59.958;17.726;2023-04-24T03:34:27;5.90;;;4.17;;
10430;SDS011;5262;59.958;17.726;2023-04-24T03:36:53;4.50;;;3.87;;
10430;SDS011;5262;59.958;17.726;2023-04-24T03:39:19;5.17;;;3.93;;
10430;SDS011;5262;59.958;17.726;2023-04-24T03:41:44;4.63;;;4.23;;
10430;SDS011;5262;59.958;17.726;2023-04-24T03:44:10;5.60;;;4.03;;
10430;SDS011;5262;59.958;17.726;2023-04-24T03:46:36;4.37;;;3.97;;
10430;SDS011;5262;59.958;17.726;2023-04-24T03:49:01;4.47;;;3.90;;
10430;SDS011;5262;59.958;17.726;2023-04-24T03:51:27;4.90;;;4.37;;
10430;SDS011;5262;59.958;17.726;2023-04-24T03:53:53;4.30;;;3.90;;
10430;SDS011;5262;59.958;17.726;2023-04-24T03:56:18;4.30;;;3.90;;
10430;SDS011;5262;59.958;17.726;2023-04-24T03:58:45;4.60;;;3.97;;
10430;SDS011;5262;59.958;17.726;2023-04-24T04:01:11;4.50;;;3.53;;
10430;SDS011;5262;59.958;17.726;2023-04-24T04:03:37;3.90;;;3.50;;
10430;SDS011;5262;59.958;17.726;2023-04-24T04:06:02;4.20;;;3.50;;
10430;SDS011;5262;59.958;17.726;2023-04-24T04:08:28;4.80;;;3.53;;
10430;SDS011;5262;59.958;17.726;2023-04-24T04:10:54;4.30;;;3.43;;
10430;SDS011;5262;59.958;17.726;2023-04-24T04:13:20;3.27;;;2.97;;
10430;SDS011;5262;59.958;17.726;2023-04-24T04:15:45;2.90;;;2.60;;
10430;SDS011;5262;59.958;17.726;2023-04-24T04:18:11;3.17;;;2.73;;
10430;SDS011;5262;59.958;17.726;2023-04-24T04:20:37;3.43;;;3.13;;
10430;SDS011;5262;59.958;17.726;2023-04-24T04:23:02;3.53;;;2.73;;
10430;SDS011;5262;59.958;17.726;2023-04-24T04:25:28;3.47;;;3.00;;
10430;SDS011;5262;59.958;17.726;2023-04-24T04:27:54;3.67;;;2.73;;
10430;SDS011;5262;59.958;17.726;2023-04-24T04:30:20;3.27;;;2.73;;
10430;SDS011;5262;59.958;17.726;2023-04-24T04:32:46;2.87;;;2.57;;
10430;SDS011;5262;59.958;17.726;2023-04-24T04:35:12;4.03;;;2.87;;
10430;SDS011;5262;59.958;17.726;2023-04-24T04:37:37;4.70;;;2.90;;
10430;SDS011;5262;59.958;17.726;2023-04-24T04:40:05;2.47;;;2.27;;
10430;SDS011;5262;59.958;17.726;2023-04-24T04:42:31;5.60;;;2.60;;
10430;SDS011;5262;59.958;17.726;2023-04-24T04:44:59;3.40;;;2.70;;
10430;SDS011;5262;59.958;17.726;2023-04-24T04:47:25;3.00;;;2.40;;
10430;SDS011;5262;59.958;17.726;2023-04-24T04:49:53;3.43;;;2.70;;
10430;SDS011;5262;59.958;17.726;2023-04-24T04:52:19;3.80;;;2.70;;
10430;SDS011;5262;59.958;17.726;2023-04-24T04:54:49;4.47;;;2.60;;
10430;SDS011;5262;59.958;17.726;2023-04-24T04:57:15;3.53;;;2.73;;
10430;SDS011;5262;59.958;17.726;2023-04-24T04:59:41;2.53;;;2.13;;
10430;SDS011;5262;59.958;17.726;2023-04-24T05:02:07;4.13;;;2.50;;
10430;SDS011;5262;59.958;17.726;2023-04-24T05:04:32;4.03;;;2.60;;
10430;SDS011;5262;59.958;17.726;2023-04-24T05:06:58;3.10;;;2.80;;
10430;SDS011;5262;59.958;17.726;2023-04-24T05:09:24;4.33;;;2.43;;
10430;SDS011;5262;59.958;17.726;2023-04-24T05:11:52;3.27;;;2.40;;
10430;SDS011;5262;59.958;17.726;2023-04-24T05:14:18;2.83;;;2.50;;
10430;SDS011;5262;59.958;17.726;2023-04-24T05:16:44;2.53;;;2.33;;
10430;SDS011;5262;59.958;17.726;2023-04-24T05:19:10;2.77;;;2.47;;
10430;SDS011;5262;59.958;17.726;2023-04-24T05:21:37;3.00;;;2.40;;
10430;SDS011;5262;59.958;17.726;2023-04-24T05:24:02;2.87;;;2.57;;
10430;SDS011;5262;59.958;17.726;2023-04-24T05:26:28;3.90;;;2.83;;
10430;SDS011;5262;59.958;17.726;2023-04-24T05:28:54;3.00;;;2.70;;
10430;SDS011;5262;59.958;17.726;2023-04-24T05:31:19;3.63;;;2.90;;
10430;SDS011;5262;59.958;17.726;2023-04-24T05:33:45;4.07;;;2.97;;
10430;SDS011;5262;59.958;17.726;2023-04-24T05:36:10;3.33;;;2.90;;
10430;SDS011;5262;59.958;17.726;2023-04-24T05:38:36;3.13;;;2.83;;
10430;SDS011;5262;59.958;17.726;2023-04-24T05:41:02;3.77;;;2.90;;
10430;SDS011;5262;59.958;17.726;2023-04-24T05:43:27;4.67;;;3.13;;
10430;SDS011;5262;59.958;17.726;2023-04-24T05:45:53;3.80;;;3.07;;
10430;SDS011;5262;59.958;17.726;2023-04-24T05:48:19;5.07;;;2.77;;
10430;SDS011;5262;59.958;17.726;2023-04-24T05:50:45;2.80;;;2.50;;
10430;SDS011;5262;59.958;17.726;2023-04-24T05:53:12;3.90;;;2.80;;
10430;SDS011;5262;59.958;17.726;2023-04-24T05:55:37;3.40;;;2.63;;
10430;SDS011;5262;59.958;17.726;2023-04-24T05:58:03;3.30;;;2.70;;
10430;SDS011;5262;59.958;17.726;2023-04-24T06:00:29;3.47;;;2.93;;
10430;SDS011;5262;59.958;17.726;2023-04-24T06:02:55;3.03;;;2.53;;
10430;SDS011;5262;59.958;17.726;2023-04-24T06:05:21;3.27;;;2.47;;
10430;SDS011;5262;59.958;17.726;2023-04-24T06:07:47;4.23;;;2.70;;
10430;SDS011;5262;59.958;17.726;2023-04-24T06:10:13;2.47;;;2.23;;
10430;SDS011;5262;59.958;17.726;2023-04-24T06:12:39;3.20;;;2.40;;
10430;SDS011;5262;59.958;17.726;2023-04-24T06:15:04;2.80;;;2.23;;
10430;SDS011;5262;59.958;17.726;2023-04-24T06:17:31;2.50;;;2.17;;
10430;SDS011;5262;59.958;17.726;2023-04-24T06:19:57;3.37;;;2.47;;
10430;SDS011;5262;59.958;17.726;2023-04-24T06:22:22;3.17;;;2.20;;
10430;SDS011;5262;59.958;17.726;2023-04-24T06:24:48;4.97;;;2.63;;
10430;SDS011;5262;59.958;17.726;2023-04-24T06:27:14;3.03;;;2.40;;
10430;SDS011;5262;59.958;17.726;2023-04-24T06:29:39;2.43;;;2.10;;
10430;SDS011;5262;59.958;17.726;2023-04-24T06:32:05;3.23;;;2.50;;
10430;SDS011;5262;59.958;17.726;2023-04-24T06:34:31;2.93;;;2.33;;
10430;SDS011;5262;59.958;17.726;2023-04-24T06:36:58;2.83;;;1.93;;
10430;SDS011;5262;59.958;17.726;2023-04-24T06:39:24;2.73;;;1.97;;
10430;SDS011;5262;59.958;17.726;2023-04-24T06:41:50;2.10;;;1.47;;
10430;SDS011;5262;59.958;17.726;2023-04-24T06:44:15;3.37;;;2.37;;
10430;SDS011;5262;59.958;17.726;2023-04-24T06:46:41;2.77;;;2.37;;
10430;SDS011;5262;59.958;17.726;2023-04-24T06:49:07;2.77;;;1.90;;
10430;SDS011;5262;59.958;17.726;2023-04-24T06:51:33;2.23;;;1.67;;
10430;SDS011;5262;59.958;17.726;2023-04-24T06:53:59;2.57;;;1.67;;
10430;SDS011;5262;59.958;17.726;2023-04-24T06:56:25;1.87;;;1.67;;
10430;SDS011;5262;59.958;17.726;2023-04-24T06:58:51;1.90;;;1.47;;
10430;SDS011;5262;59.958;17.726;2023-04-24T07:01:17;2.00;;;1.63;;
10430;SDS011;5262;59.958;17.726;2023-04-24T07:03:42;2.53;;;1.70;;
10430;SDS011;5262;59.958;17.726;2023-04-24T07:06:08;2.80;;;1.70;;
10430;SDS011;5262;59.958;17.726;2023-04-24T07:08:36;2.08;;;1.88;;
10430;SDS011;5262;59.958;17.726;2023-04-24T07:11:02;2.37;;;1.97;;
10430;SDS011;5262;59.958;17.726;2023-04-24T07:13:28;2.47;;;1.90;;
10430;SDS011;5262;59.958;17.726;2023-04-24T07:15:54;1.87;;;1.70;;
10430;SDS011;5262;59.958;17.726;2023-04-24T07:18:21;2.03;;;1.40;;
10430;SDS011;5262;59.958;17.726;2023-04-24T07:20:47;1.63;;;1.47;;
10430;SDS011;5262;59.958;17.726;2023-04-24T07:23:12;3.13;;;1.77;;
10430;SDS011;5262;59.958;17.726;2023-04-24T07:25:38;2.90;;;1.70;;
10430;SDS011;5262;59.958;17.726;2023-04-24T07:28:04;2.00;;;1.53;;
10430;SDS011;5262;59.958;17.726;2023-04-24T07:30:33;2.03;;;1.63;;
10430;SDS011;5262;59.958;17.726;2023-04-24T07:32:59;1.87;;;1.60;;
10430;SDS011;5262;59.958;17.726;2023-04-24T07:35:25;2.10;;;1.73;;
10430;SDS011;5262;59.958;17.726;2023-04-24T07:37:54;1.70;;;1.60;;
10430;SDS011;5262;59.958;17.726;2023-04-24T07:40:20;3.57;;;1.67;;
10430;SDS011;5262;59.958;17.726;2023-04-24T07:42:46;2.70;;;1.60;;
10430;SDS011;5262;59.958;17.726;2023-04-24T07:45:15;1.63;;;1.53;;
10430;SDS011;5262;59.958;17.726;2023-04-24T07:47:41;1.87;;;1.50;;
10430;SDS011;5262;59.958;17.726;2023-04-24T07:50:09;1.37;;;1.27;;
10430;SDS011;5262;59.958;17.726;2023-04-24T07:52:35;1.43;;;1.20;;
10430;SDS011;5262;59.958;17.726;2023-04-24T07:55:01;1.87;;;1.60;;
10430;SDS011;5262;59.958;17.726;2023-04-24T07:57:27;2.20;;;1.50;;
10430;SDS011;5262;59.958;17.726;2023-04-24T07:59:53;1.87;;;1.30;;
10430;SDS011;5262;59.958;17.726;2023-04-24T08:02:19;1.50;;;1.00;;
10430;SDS011;5262;59.958;17.726;2023-04-24T08:04:46;2.50;;;1.37;;
10430;SDS011;5262;59.958;17.726;2023-04-24T08:07:12;1.43;;;1.33;;
10430;SDS011;5262;59.958;17.726;2023-04-24T08:09:38;1.48;;;1.20;;
10430;SDS011;5262;59.958;17.726;2023-04-24T08:12:03;1.30;;;1.20;;
10430;SDS011;5262;59.958;17.726;2023-04-24T08:14:29;1.73;;;1.40;;
10430;SDS011;5262;59.958;17.726;2023-04-24T08:16:55;1.47;;;1.30;;
10430;SDS011;5262;59.958;17.726;2023-04-24T08:19:21;1.30;;;1.20;;
10430;SDS011;5262;59.958;17.726;2023-04-24T08:21:47;1.17;;;1.07;;
10430;SDS011;5262;59.958;17.726;2023-04-24T08:24:12;1.40;;;1.30;;
10430;SDS011;5262;59.958;17.726;2023-04-24T08:26:38;1.93;;;0.97;;
10430;SDS011;5262;59.958;17.726;2023-04-24T08:29:05;2.03;;;1.33;;
10430;SDS011;5262;59.958;17.726;2023-04-24T08:31:31;1.30;;;1.20;;
10430;SDS011;5262;59.958;17.726;2023-04-24T08:33:57;1.40;;;1.30;;
10430;SDS011;5262;59.958;17.726;2023-04-24T08:36:24;1.50;;;1.30;;
10430;SDS011;5262;59.958;17.726;2023-04-24T08:38:51;1.70;;;1.57;;
10430;SDS011;5262;59.958;17.726;2023-04-24T08:41:17;1.93;;;1.20;;
10430;SDS011;5262;59.958;17.726;2023-04-24T08:43:45;1.53;;;1.30;;
10430;SDS011;5262;59.958;17.726;2023-04-24T08:46:11;1.97;;;1.43;;
10430;SDS011;5262;59.958;17.726;2023-04-24T08:48:38;2.17;;;1.30;;
10430;SDS011;5262;59.958;17.726;2023-04-24T08:51:08;1.53;;;1.30;;
10430;SDS011;5262;59.958;17.726;2023-04-24T08:53:34;2.73;;;1.30;;
10430;SDS011;5262;59.958;17.726;2023-04-24T08:56:01;1.63;;;1.33;;
10430;SDS011;5262;59.958;17.726;2023-04-24T08:58:28;1.73;;;1.63;;
10430;SDS011;5262;59.958;17.726;2023-04-24T09:00:55;1.80;;;1.47;;
10430;SDS011;5262;59.958;17.726;2023-04-24T09:03:21;1.87;;;1.20;;
10430;SDS011;5262;59.958;17.726;2023-04-24T09:05:48;2.00;;;1.47;;
10430;SDS011;5262;59.958;17.726;2023-04-24T09:08:16;1.40;;;1.30;;
10430;SDS011;5262;59.958;17.726;2023-04-24T09:10:43;1.57;;;1.40;;
10430;SDS011;5262;59.958;17.726;2023-04-24T09:13:09;1.47;;;1.37;;
10430;SDS011;5262;59.958;17.726;2023-04-24T09:15:36;1.40;;;1.30;;
10430;SDS011;5262;59.958;17.726;2023-04-24T09:18:05;2.00;;;1.50;;
10430;SDS011;5262;59.958;17.726;2023-04-24T09:20:31;1.97;;;1.47;;
10430;SDS011;5262;59.958;17.726;2023-04-24T09:22:58;3.43;;;1.70;;
10430;SDS011;5262;59.958;17.726;2023-04-24T09:25:33;2.43;;;1.50;;
10430;SDS011;5262;59.958;17.726;2023-04-24T09:28:04;2.10;;;1.63;;
10430;SDS011;5262;59.958;17.726;2023-04-24T09:30:31;1.47;;;1.37;;
10430;SDS011;5262;59.958;17.726;2023-04-24T09:33:13;3.47;;;1.70;;
10430;SDS011;5262;59.958;17.726;2023-04-24T09:35:41;1.73;;;1.53;;
10430;SDS011;5262;59.958;17.726;2023-04-24T09:38:07;1.33;;;1.13;;
10430;SDS011;5262;59.958;17.726;2023-04-24T09:53:45;2.57;;;1.80;;
10430;SDS011;5262;59.958;17.726;2023-04-24T12:56:24;2.80;;;2.60;;
10430;SDS011;5262;59.958;17.726;2023-04-24T12:58:49;3.63;;;2.90;;
10430;SDS011;5262;59.958;17.726;2023-04-24T16:51:35;3.00;;;2.70;;
10430;SDS011;5262;59.958;17.726;2023-04-24T16:54:01;4.10;;;2.60;;
10430;SDS011;5262;59.958;17.726;2023-04-24T16:56:26;2.53;;;2.33;;
10430;SDS011;5262;59.958;17.726;2023-04-24T16:58:52;5.10;;;2.67;;
10430;SDS011;5262;59.958;17.726;2023-04-24T17:01:17;4.43;;;2.63;;
10430;SDS011;5262;59.958;17.726;2023-04-24T17:03:43;3.53;;;2.70;;
10430;SDS011;5262;59.958;17.726;2023-04-24T17:06:09;4.03;;;2.80;;
10430;SDS011;5262;59.958;17.726;2023-04-24T17:08:35;3.90;;;2.80;;
10430;SDS011;5262;59.958;17.726;2023-04-24T17:11:00;3.93;;;2.83;;
10430;SDS011;5262;59.958;17.726;2023-04-24T17:13:26;4.70;;;3.53;;
10430;SDS011;5262;59.958;17.726;2023-04-24T17:15:51;5.07;;;3.80;;
10430;SDS011;5262;59.958;17.726;2023-04-24T17:18:17;5.87;;;3.57;;
10430;SDS011;5262;59.958;17.726;2023-04-24T17:20:43;5.10;;;3.00;;
10430;SDS011;5262;59.958;17.726;2023-04-24T17:23:09;3.10;;;2.80;;
10430;SDS011;5262;59.958;17.726;2023-04-24T17:25:37;5.03;;;3.03;;
10430;SDS011;5262;59.958;17.726;2023-04-24T17:28:07;4.37;;;3.13;;
10430;SDS011;5262;59.958;17.726;2023-04-24T17:30:45;3.63;;;2.63;;
10430;SDS011;5262;59.958;17.726;2023-04-24T17:33:11;7.40;;;3.60;;
10430;SDS011;5262;59.958;17.726;2023-04-24T17:35:36;4.70;;;3.30;;
10430;SDS011;5262;59.958;17.726;2023-04-24T17:38:02;3.90;;;3.10;;
10430;SDS011;5262;59.958;17.726;2023-04-24T17:40:28;4.80;;;3.17;;
10430;SDS011;5262;59.958;17.726;2023-04-24T17:42:53;3.30;;;2.80;;
10430;SDS011;5262;59.958;17.726;2023-04-24T17:45:19;5.90;;;3.30;;
10430;SDS011;5262;59.958;17.726;2023-04-24T17:47:44;5.60;;;3.43;;
10430;SDS011;5262;59.958;17.726;2023-04-24T17:50:10;4.53;;;3.20;;
10430;SDS011;5262;59.958;17.726;2023-04-24T17:52:36;4.30;;;3.20;;
10430;SDS011;5262;59.958;17.726;2023-04-24T17:55:02;3.83;;;2.90;;
10430;SDS011;5262;59.958;17.726;2023-04-24T17:57:28;3.97;;;3.10;;
10430;SDS011;5262;59.958;17.726;2023-04-24T17:59:53;7.40;;;3.40;;
10430;SDS011;5262;59.958;17.726;2023-04-24T18:02:19;3.70;;;2.90;;
10430;SDS011;5262;59.958;17.726;2023-04-24T18:04:45;7.23;;;3.50;;
10430;SDS011;5262;59.958;17.726;2023-04-24T18:07:10;4.30;;;3.20;;
10430;SDS011;5262;59.958;17.726;2023-04-24T18:09:36;3.60;;;3.30;;
10430;SDS011;5262;59.958;17.726;2023-04-24T18:12:01;5.40;;;3.27;;
10430;SDS011;5262;59.958;17.726;2023-04-24T18:14:28;3.50;;;2.83;;
10430;SDS011;5262;59.958;17.726;2023-04-24T18:16:53;4.00;;;3.50;;
10430;SDS011;5262;59.958;17.726;2023-04-24T18:19:19;4.50;;;3.80;;
10430;SDS011;5262;59.958;17.726;2023-04-24T18:21:44;4.37;;;3.40;;
10430;SDS011;5262;59.958;17.726;2023-04-24T18:24:10;4.93;;;3.80;;
10430;SDS011;5262;59.958;17.726;2023-04-24T18:26:36;4.93;;;4.10;;
10430;SDS011;5262;59.958;17.726;2023-04-24T18:29:01;4.63;;;3.53;;
10430;SDS011;5262;59.958;17.726;2023-04-24T18:31:27;4.13;;;3.33;;
10430;SDS011;5262;59.958;17.726;2023-04-24T18:33:52;4.47;;;3.80;;
10430;SDS011;5262;59.958;17.726;2023-04-24T18:36:19;3.83;;;3.40;;
10430;SDS011;5262;59.958;17.726;2023-04-24T18:38:45;5.93;;;3.20;;
10430;SDS011;5262;59.958;17.726;2023-04-24T18:41:10;3.97;;;3.50;;
10430;SDS011;5262;59.958;17.726;2023-04-24T18:43:38;5.83;;;4.40;;
10430;SDS011;5262;59.958;17.726;2023-04-24T18:46:03;6.03;;;4.17;;
10430;SDS011;5262;59.958;17.726;2023-04-24T18:48:29;4.13;;;3.60;;
10430;SDS011;5262;59.958;17.726;2023-04-24T18:50:55;4.10;;;2.80;;
10430;SDS011;5262;59.958;17.726;2023-04-24T18:53:21;3.73;;;3.43;;
10430;SDS011;5262;59.958;17.726;2023-04-24T18:55:46;4.50;;;3.53;;
10430;SDS011;5262;59.958;17.726;2023-04-24T18:58:12;4.67;;;3.67;;
10430;SDS011;5262;59.958;17.726;2023-04-24T19:00:38;3.87;;;3.20;;
10430;SDS011;5262;59.958;17.726;2023-04-24T19:03:03;4.00;;;3.20;;
10430;SDS011;5262;59.958;17.726;2023-04-24T19:05:29;6.20;;;3.70;;
10430;SDS011;5262;59.958;17.726;2023-04-24T19:07:55;3.77;;;3.40;;
10430;SDS011;5262;59.958;17.726;2023-04-24T19:10:20;3.60;;;3.30;;
10430;SDS011;5262;59.958;17.726;2023-04-24T19:12:46;4.17;;;3.33;;
10430;SDS011;5262;59.958;17.726;2023-04-24T19:15:13;4.97;;;3.20;;
10430;SDS011;5262;59.958;17.726;2023-04-24T19:17:39;3.53;;;3.03;;
10430;SDS011;5262;59.958;17.726;2023-04-24T19:20:05;4.43;;;3.17;;
10430;SDS011;5262;59.958;17.726;2023-04-24T19:22:31;3.90;;;3.20;;
10430;SDS011;5262;59.958;17.726;2023-04-24T19:24:57;4.77;;;3.63;;
10430;SDS011;5262;59.958;17.726;2023-04-24T19:27:23;5.00;;;3.30;;
10430;SDS011;5262;59.958;17.726;2023-04-24T19:29:48;5.13;;;3.40;;
10430;SDS011;5262;59.958;17.726;2023-04-24T19:32:16;4.00;;;3.60;;
10430;SDS011;5262;59.958;17.726;2023-04-24T19:34:41;4.67;;;3.60;;
10430;SDS011;5262;59.958;17.726;2023-04-24T19:37:07;5.37;;;2.97;;
10430;SDS011;5262;59.958;17.726;2023-04-24T19:39:33;5.40;;;3.10;;
10430;SDS011;5262;59.958;17.726;2023-04-24T19:41:58;5.00;;;3.20;;
10430;SDS011;5262;59.958;17.726;2023-04-24T19:44:25;6.63;;;3.70;;
10430;SDS011;5262;59.958;17.726;2023-04-24T19:46:50;6.33;;;3.67;;
10430;SDS011;5262;59.958;17.726;2023-04-24T19:49:17;7.47;;;3.17;;
10430;SDS011;5262;59.958;17.726;2023-04-24T19:51:42;5.47;;;3.10;;
10430;SDS011;5262;59.958;17.726;2023-04-24T19:54:08;3.77;;;3.03;;
10430;SDS011;5262;59.958;17.726;2023-04-24T19:56:34;4.73;;;3.20;;
10430;SDS011;5262;59.958;17.726;2023-04-24T19:58:59;4.50;;;3.23;;
10430;SDS011;5262;59.958;17.726;2023-04-24T20:01:25;5.03;;;3.57;;
10430;SDS011;5262;59.958;17.726;2023-04-24T20:03:51;5.40;;;3.70;;
10430;SDS011;5262;59.958;17.726;2023-04-24T20:06:16;6.63;;;3.90;;
10430;SDS011;5262;59.958;17.726;2023-04-24T20:08:42;5.77;;;4.47;;
10430;SDS011;5262;59.958;17.726;2023-04-24T20:11:08;7.07;;;5.17;;
10430;SDS011;5262;59.958;17.726;2023-04-24T20:13:34;7.60;;;5.27;;
10430;SDS011;5262;59.958;17.726;2023-04-24T20:16:00;8.97;;;5.03;;
10430;SDS011;5262;59.958;17.726;2023-04-24T20:18:25;6.20;;;4.23;;
10430;SDS011;5262;59.958;17.726;2023-04-24T20:20:54;6.53;;;3.73;;
10430;SDS011;5262;59.958;17.726;2023-04-24T20:23:23;6.60;;;4.33;;
10430;SDS011;5262;59.958;17.726;2023-04-24T20:25:49;6.87;;;3.60;;
10430;SDS011;5262;59.958;17.726;2023-04-24T20:28:21;4.33;;;3.27;;
10430;SDS011;5262;59.958;17.726;2023-04-24T20:30:51;3.90;;;3.40;;
10430;SDS011;5262;59.958;17.726;2023-04-24T20:33:17;4.93;;;3.60;;
10430;SDS011;5262;59.958;17.726;2023-04-24T20:35:43;9.17;;;4.77;;
10430;SDS011;5262;59.958;17.726;2023-04-24T20:38:09;6.47;;;4.10;;
10430;SDS011;5262;59.958;17.726;2023-04-24T20:40:35;6.03;;;4.00;;
10430;SDS011;5262;59.958;17.726;2023-04-24T20:43:01;5.73;;;3.97;;
10430;SDS011;5262;59.958;17.726;2023-04-24T20:45:28;7.77;;;4.03;;
10430;SDS011;5262;59.958;17.726;2023-04-24T20:47:54;5.87;;;4.00;;
10430;SDS011;5262;59.958;17.726;2023-04-24T20:50:19;4.80;;;3.77;;
10430;SDS011;5262;59.958;17.726;2023-04-24T20:52:45;6.87;;;4.37;;
10430;SDS011;5262;59.958;17.726;2023-04-24T20:55:11;5.50;;;3.87;;
10430;SDS011;5262;59.958;17.726;2023-04-24T20:57:36;5.47;;;4.10;;
10430;SDS011;5262;59.958;17.726;2023-04-24T21:00:03;6.03;;;4.10;;
10430;SDS011;5262;59.958;17.726;2023-04-24T21:02:34;6.43;;;4.67;;
10430;SDS011;5262;59.958;17.726;2023-04-24T21:05:00;5.67;;;4.20;;
10430;SDS011;5262;59.958;17.726;2023-04-24T21:07:25;4.53;;;4.03;;
10430;SDS011;5262;59.958;17.726;2023-04-24T21:09:51;7.20;;;4.57;;
10430;SDS011;5262;59.958;17.726;2023-04-24T21:12:17;7.07;;;4.80;;
10430;SDS011;5262;59.958;17.726;2023-04-24T21:14:42;5.83;;;3.77;;
10430;SDS011;5262;59.958;17.726;2023-04-24T21:17:08;6.63;;;4.60;;
10430;SDS011;5262;59.958;17.726;2023-04-24T21:19:34;6.87;;;4.23;;
10430;SDS011;5262;59.958;17.726;2023-04-24T21:22:00;9.67;;;4.50;;
10430;SDS011;5262;59.958;17.726;2023-04-24T21:24:25;5.63;;;3.73;;
10430;SDS011;5262;59.958;17.726;2023-04-24T21:26:51;7.07;;;4.17;;
10430;SDS011;5262;59.958;17.726;2023-04-24T21:29:16;5.60;;;4.37;;
10430;SDS011;5262;59.958;17.726;2023-04-24T21:31:42;5.87;;;4.17;;
10430;SDS011;5262;59.958;17.726;2023-04-24T21:34:08;7.80;;;3.87;;
10430;SDS011;5262;59.958;17.726;2023-04-24T21:36:34;8.93;;;4.80;;
10430;SDS011;5262;59.958;17.726;2023-04-24T21:38:59;7.50;;;4.07;;
10430;SDS011;5262;59.958;17.726;2023-04-24T21:41:25;5.47;;;4.10;;
10430;SDS011;5262;59.958;17.726;2023-04-24T21:43:51;6.73;;;3.97;;
10430;SDS011;5262;59.958;17.726;2023-04-24T21:46:17;6.03;;;4.00;;